Terminal Aerodrome Forecast
Issued by NWS Sioux Falls, SD

Home | Current Version | Previous Version | Text Only | Print | Product List | Glossary On
Versions: 1 2 3 4 5 6 7 8 9 10 11 12 13 14 15 16 17 18
000
FTUS43 KFSD 232331
TAFHON
TAF
KHON 232331Z 2400/2424 15014G21KT P6SM SCT060 SCT120
     FM240600 14013KT P6SM SCT060 OVC200
     FM240900 15013KT 6SM -RA OVC030
     FM241800 14007KT P6SM OVC035=

USA.gov is the U.S. government's official web portal to all federal, state and local government web resources and services.